sensor_id;sensor_type;location;lat;lon;timestamp;P1;durP1;ratioP1;P2;durP2;ratioP2
39442;SDS011;25147;52.142;9.960;2023-05-07T00:02:23;31.17;;;26.67;;
39442;SDS011;25147;52.142;9.960;2023-05-07T00:04:52;31.85;;;27.15;;
39442;SDS011;25147;52.142;9.960;2023-05-07T00:07:19;31.92;;;26.45;;
39442;SDS011;25147;52.142;9.960;2023-05-07T00:09:46;33.78;;;28.17;;
39442;SDS011;25147;52.142;9.960;2023-05-07T00:12:13;34.08;;;27.17;;
39442;SDS011;25147;52.142;9.960;2023-05-07T00:14:39;30.48;;;27.13;;
39442;SDS011;25147;52.142;9.960;2023-05-07T00:17:06;33.75;;;27.60;;
39442;SDS011;25147;52.142;9.960;2023-05-07T00:19:33;32.50;;;27.02;;
39442;SDS011;25147;52.142;9.960;2023-05-07T00:22:01;35.40;;;27.88;;
39442;SDS011;25147;52.142;9.960;2023-05-07T00:24:28;35.03;;;28.88;;
39442;SDS011;25147;52.142;9.960;2023-05-07T00:26:55;33.03;;;28.63;;
39442;SDS011;25147;52.142;9.960;2023-05-07T00:29:23;32.83;;;28.50;;
39442;SDS011;25147;52.142;9.960;2023-05-07T00:31:50;34.33;;;28.02;;
39442;SDS011;25147;52.142;9.960;2023-05-07T00:34:19;38.55;;;29.55;;
39442;SDS011;25147;52.142;9.960;2023-05-07T00:36:47;39.97;;;30.95;;
39442;SDS011;25147;52.142;9.960;2023-05-07T00:39:15;39.25;;;31.17;;
39442;SDS011;25147;52.142;9.960;2023-05-07T00:41:42;37.72;;;29.95;;
39442;SDS011;25147;52.142;9.960;2023-05-07T00:44:09;33.53;;;28.98;;
39442;SDS011;25147;52.142;9.960;2023-05-07T00:46:35;40.38;;;30.30;;
39442;SDS011;25147;52.142;9.960;2023-05-07T00:49:02;38.97;;;30.13;;
39442;SDS011;25147;52.142;9.960;2023-05-07T00:51:30;38.42;;;28.60;;
39442;SDS011;25147;52.142;9.960;2023-05-07T00:53:57;34.90;;;29.13;;
39442;SDS011;25147;52.142;9.960;2023-05-07T00:56:26;37.22;;;29.48;;
39442;SDS011;25147;52.142;9.960;2023-05-07T00:58:53;37.13;;;28.83;;
39442;SDS011;25147;52.142;9.960;2023-05-07T01:01:21;35.30;;;27.83;;
39442;SDS011;25147;52.142;9.960;2023-05-07T01:03:47;37.85;;;30.13;;
39442;SDS011;25147;52.142;9.960;2023-05-07T01:06:15;39.50;;;30.45;;
39442;SDS011;25147;52.142;9.960;2023-05-07T01:08:42;37.95;;;29.63;;
39442;SDS011;25147;52.142;9.960;2023-05-07T01:11:09;35.92;;;28.65;;
39442;SDS011;25147;52.142;9.960;2023-05-07T01:13:39;37.28;;;28.45;;
39442;SDS011;25147;52.142;9.960;2023-05-07T01:16:09;38.88;;;28.45;;
39442;SDS011;25147;52.142;9.960;2023-05-07T01:18:36;34.05;;;27.02;;
39442;SDS011;25147;52.142;9.960;2023-05-07T01:21:04;36.95;;;27.15;;
39442;SDS011;25147;52.142;9.960;2023-05-07T01:23:32;37.88;;;27.52;;
39442;SDS011;25147;52.142;9.960;2023-05-07T01:26:03;34.83;;;26.95;;
39442;SDS011;25147;52.142;9.960;2023-05-07T01:28:30;34.90;;;27.63;;
39442;SDS011;25147;52.142;9.960;2023-05-07T01:31:00;33.75;;;25.92;;
39442;SDS011;25147;52.142;9.960;2023-05-07T01:33:33;36.53;;;27.05;;
39442;SDS011;25147;52.142;9.960;2023-05-07T01:36:03;32.60;;;25.38;;
39442;SDS011;25147;52.142;9.960;2023-05-07T01:38:35;32.92;;;24.88;;
39442;SDS011;25147;52.142;9.960;2023-05-07T01:41:06;32.50;;;24.80;;
39442;SDS011;25147;52.142;9.960;2023-05-07T01:43:33;31.02;;;24.17;;
39442;SDS011;25147;52.142;9.960;2023-05-07T01:46:00;33.10;;;24.73;;
39442;SDS011;25147;52.142;9.960;2023-05-07T01:48:29;32.42;;;23.90;;
39442;SDS011;25147;52.142;9.960;2023-05-07T01:50:55;29.65;;;23.08;;
39442;SDS011;25147;52.142;9.960;2023-05-07T01:53:23;29.38;;;22.70;;
39442;SDS011;25147;52.142;9.960;2023-05-07T01:55:51;31.63;;;22.70;;
39442;SDS011;25147;52.142;9.960;2023-05-07T01:58:18;31.20;;;23.25;;
39442;SDS011;25147;52.142;9.960;2023-05-07T02:00:44;27.90;;;22.08;;
39442;SDS011;25147;52.142;9.960;2023-05-07T02:03:11;26.48;;;21.17;;
39442;SDS011;25147;52.142;9.960;2023-05-07T02:05:38;29.70;;;21.63;;
39442;SDS011;25147;52.142;9.960;2023-05-07T02:08:04;24.58;;;20.48;;
39442;SDS011;25147;52.142;9.960;2023-05-07T02:10:31;28.27;;;20.83;;
39442;SDS011;25147;52.142;9.960;2023-05-07T02:12:59;26.92;;;21.65;;
39442;SDS011;25147;52.142;9.960;2023-05-07T02:15:27;24.70;;;19.88;;
39442;SDS011;25147;52.142;9.960;2023-05-07T02:18:00;25.95;;;20.75;;
39442;SDS011;25147;52.142;9.960;2023-05-07T02:20:28;25.25;;;19.48;;
39442;SDS011;25147;52.142;9.960;2023-05-07T02:22:55;25.20;;;20.13;;
39442;SDS011;25147;52.142;9.960;2023-05-07T02:25:21;23.95;;;19.10;;
39442;SDS011;25147;52.142;9.960;2023-05-07T02:27:48;25.85;;;18.77;;
39442;SDS011;25147;52.142;9.960;2023-05-07T02:30:19;23.33;;;18.73;;
39442;SDS011;25147;52.142;9.960;2023-05-07T02:32:46;22.40;;;18.88;;
39442;SDS011;25147;52.142;9.960;2023-05-07T02:35:13;22.60;;;18.35;;
39442;SDS011;25147;52.142;9.960;2023-05-07T02:37:40;24.20;;;19.33;;
39442;SDS011;25147;52.142;9.960;2023-05-07T02:40:07;21.92;;;18.52;;
39442;SDS011;25147;52.142;9.960;2023-05-07T02:42:34;21.77;;;17.30;;
39442;SDS011;25147;52.142;9.960;2023-05-07T02:45:01;19.88;;;17.00;;
39442;SDS011;25147;52.142;9.960;2023-05-07T02:47:29;18.65;;;16.08;;
39442;SDS011;25147;52.142;9.960;2023-05-07T02:49:55;18.95;;;16.02;;
39442;SDS011;25147;52.142;9.960;2023-05-07T02:52:22;18.88;;;16.88;;
39442;SDS011;25147;52.142;9.960;2023-05-07T02:54:49;18.17;;;15.80;;
39442;SDS011;25147;52.142;9.960;2023-05-07T02:57:15;17.98;;;15.90;;
39442;SDS011;25147;52.142;9.960;2023-05-07T02:59:42;19.08;;;16.70;;
39442;SDS011;25147;52.142;9.960;2023-05-07T03:02:09;18.13;;;16.20;;
39442;SDS011;25147;52.142;9.960;2023-05-07T03:04:37;19.60;;;16.77;;
39442;SDS011;25147;52.142;9.960;2023-05-07T03:07:05;19.98;;;16.85;;
39442;SDS011;25147;52.142;9.960;2023-05-07T03:09:31;18.88;;;16.55;;
39442;SDS011;25147;52.142;9.960;2023-05-07T03:11:58;19.20;;;16.60;;
39442;SDS011;25147;52.142;9.960;2023-05-07T03:14:25;19.73;;;16.42;;
39442;SDS011;25147;52.142;9.960;2023-05-07T03:16:51;18.92;;;16.90;;
39442;SDS011;25147;52.142;9.960;2023-05-07T03:19:18;19.80;;;17.70;;
39442;SDS011;25147;52.142;9.960;2023-05-07T03:21:46;18.75;;;16.83;;
39442;SDS011;25147;52.142;9.960;2023-05-07T03:24:13;19.80;;;17.50;;
39442;SDS011;25147;52.142;9.960;2023-05-07T03:26:40;20.42;;;18.17;;
39442;SDS011;25147;52.142;9.960;2023-05-07T03:29:07;21.90;;;17.42;;
39442;SDS011;25147;52.142;9.960;2023-05-07T03:31:34;21.33;;;17.45;;
39442;SDS011;25147;52.142;9.960;2023-05-07T03:34:00;20.00;;;17.15;;
39442;SDS011;25147;52.142;9.960;2023-05-07T03:36:27;19.45;;;17.38;;
39442;SDS011;25147;52.142;9.960;2023-05-07T03:38:55;19.45;;;16.42;;
39442;SDS011;25147;52.142;9.960;2023-05-07T03:41:22;19.73;;;17.33;;
39442;SDS011;25147;52.142;9.960;2023-05-07T03:43:48;21.58;;;16.20;;
39442;SDS011;25147;52.142;9.960;2023-05-07T03:46:15;19.90;;;15.90;;
39442;SDS011;25147;52.142;9.960;2023-05-07T03:48:44;19.00;;;16.23;;
39442;SDS011;25147;52.142;9.960;2023-05-07T03:51:11;16.98;;;15.20;;
39442;SDS011;25147;52.142;9.960;2023-05-07T03:53:37;19.23;;;15.82;;
39442;SDS011;25147;52.142;9.960;2023-05-07T03:56:05;17.83;;;15.98;;
39442;SDS011;25147;52.142;9.960;2023-05-07T03:58:32;16.75;;;14.93;;
39442;SDS011;25147;52.142;9.960;2023-05-07T04:00:59;16.73;;;14.95;;
39442;SDS011;25147;52.142;9.960;2023-05-07T04:03:26;19.13;;;15.90;;
39442;SDS011;25147;52.142;9.960;2023-05-07T04:05:53;17.42;;;15.43;;
39442;SDS011;25147;52.142;9.960;2023-05-07T04:08:19;20.02;;;15.40;;
39442;SDS011;25147;52.142;9.960;2023-05-07T04:10:46;18.73;;;14.80;;
39442;SDS011;25147;52.142;9.960;2023-05-07T04:13:14;19.02;;;15.90;;
39442;SDS011;25147;52.142;9.960;2023-05-07T04:15:41;15.98;;;14.27;;
39442;SDS011;25147;52.142;9.960;2023-05-07T04:18:07;18.05;;;15.30;;
39442;SDS011;25147;52.142;9.960;2023-05-07T04:20:34;16.85;;;15.00;;
39442;SDS011;25147;52.142;9.960;2023-05-07T04:23:02;17.65;;;14.73;;
39442;SDS011;25147;52.142;9.960;2023-05-07T04:25:29;15.52;;;13.82;;
39442;SDS011;25147;52.142;9.960;2023-05-07T04:27:55;16.65;;;14.73;;
39442;SDS011;25147;52.142;9.960;2023-05-07T04:30:24;16.60;;;14.70;;
39442;SDS011;25147;52.142;9.960;2023-05-07T04:32:51;18.25;;;14.57;;
39442;SDS011;25147;52.142;9.960;2023-05-07T04:35:18;18.08;;;15.40;;
39442;SDS011;25147;52.142;9.960;2023-05-07T04:37:44;15.80;;;14.15;;
39442;SDS011;25147;52.142;9.960;2023-05-07T04:40:11;16.42;;;14.35;;
39442;SDS011;25147;52.142;9.960;2023-05-07T04:42:38;17.83;;;14.73;;
39442;SDS011;25147;52.142;9.960;2023-05-07T04:45:05;16.98;;;15.18;;
39442;SDS011;25147;52.142;9.960;2023-05-07T04:47:35;17.40;;;15.32;;
39442;SDS011;25147;52.142;9.960;2023-05-07T04:50:02;17.75;;;14.70;;
39442;SDS011;25147;52.142;9.960;2023-05-07T04:52:28;17.02;;;14.77;;
39442;SDS011;25147;52.142;9.960;2023-05-07T04:54:55;17.17;;;13.80;;
39442;SDS011;25147;52.142;9.960;2023-05-07T04:57:22;17.50;;;14.52;;
39442;SDS011;25147;52.142;9.960;2023-05-07T04:59:48;15.70;;;14.10;;
39442;SDS011;25147;52.142;9.960;2023-05-07T05:02:15;15.93;;;14.00;;
39442;SDS011;25147;52.142;9.960;2023-05-07T05:04:43;16.83;;;14.65;;
39442;SDS011;25147;52.142;9.960;2023-05-07T05:07:10;17.10;;;13.80;;
39442;SDS011;25147;52.142;9.960;2023-05-07T05:09:36;17.00;;;14.27;;
39442;SDS011;25147;52.142;9.960;2023-05-07T05:12:03;17.67;;;14.07;;
39442;SDS011;25147;52.142;9.960;2023-05-07T05:14:32;16.45;;;14.07;;
39442;SDS011;25147;52.142;9.960;2023-05-07T05:17:01;17.60;;;14.18;;
39442;SDS011;25147;52.142;9.960;2023-05-07T05:19:28;13.82;;;12.43;;
39442;SDS011;25147;52.142;9.960;2023-05-07T05:21:56;18.15;;;14.38;;
39442;SDS011;25147;52.142;9.960;2023-05-07T05:24:23;16.65;;;14.10;;
39442;SDS011;25147;52.142;9.960;2023-05-07T05:26:49;14.38;;;12.68;;
39442;SDS011;25147;52.142;9.960;2023-05-07T05:29:16;14.52;;;12.68;;
39442;SDS011;25147;52.142;9.960;2023-05-07T05:31:42;15.68;;;13.85;;
39442;SDS011;25147;52.142;9.960;2023-05-07T05:34:09;15.05;;;13.32;;
39442;SDS011;25147;52.142;9.960;2023-05-07T05:36:46;15.45;;;12.98;;
39442;SDS011;25147;52.142;9.960;2023-05-07T05:39:14;14.35;;;12.85;;
39442;SDS011;25147;52.142;9.960;2023-05-07T05:41:41;15.35;;;12.90;;
39442;SDS011;25147;52.142;9.960;2023-05-07T05:44:07;13.18;;;11.88;;
39442;SDS011;25147;52.142;9.960;2023-05-07T05:46:34;14.23;;;12.50;;
39442;SDS011;25147;52.142;9.960;2023-05-07T05:49:01;14.18;;;12.77;;
39442;SDS011;25147;52.142;9.960;2023-05-07T05:51:28;13.75;;;12.38;;
39442;SDS011;25147;52.142;9.960;2023-05-07T05:53:55;14.00;;;12.55;;
39442;SDS011;25147;52.142;9.960;2023-05-07T05:56:23;13.07;;;11.77;;
39442;SDS011;25147;52.142;9.960;2023-05-07T05:58:50;14.00;;;12.00;;
39442;SDS011;25147;52.142;9.960;2023-05-07T06:01:17;14.27;;;12.77;;
39442;SDS011;25147;52.142;9.960;2023-05-07T06:03:47;14.60;;;12.38;;
39442;SDS011;25147;52.142;9.960;2023-05-07T06:06:13;12.60;;;11.30;;
39442;SDS011;25147;52.142;9.960;2023-05-07T06:08:41;12.00;;;10.63;;
39442;SDS011;25147;52.142;9.960;2023-05-07T06:11:08;12.00;;;10.68;;
39442;SDS011;25147;52.142;9.960;2023-05-07T06:13:36;11.73;;;10.52;;
39442;SDS011;25147;52.142;9.960;2023-05-07T06:16:02;13.25;;;11.65;;
39442;SDS011;25147;52.142;9.960;2023-05-07T06:18:30;12.20;;;10.93;;
39442;SDS011;25147;52.142;9.960;2023-05-07T06:20:56;11.50;;;10.38;;
39442;SDS011;25147;52.142;9.960;2023-05-07T06:23:23;11.82;;;10.63;;
39442;SDS011;25147;52.142;9.960;2023-05-07T06:25:50;11.02;;;9.90;;
39442;SDS011;25147;52.142;9.960;2023-05-07T06:28:19;11.32;;;10.15;;
39442;SDS011;25147;52.142;9.960;2023-05-07T06:30:48;10.60;;;9.50;;
39442;SDS011;25147;52.142;9.960;2023-05-07T06:33:15;10.77;;;9.63;;
39442;SDS011;25147;52.142;9.960;2023-05-07T06:35:42;10.35;;;9.35;;
39442;SDS011;25147;52.142;9.960;2023-05-07T06:38:09;9.73;;;8.77;;
39442;SDS011;25147;52.142;9.960;2023-05-07T06:40:36;10.32;;;9.15;;
39442;SDS011;25147;52.142;9.960;2023-05-07T06:43:02;10.43;;;9.32;;
39442;SDS011;25147;52.142;9.960;2023-05-07T06:45:31;9.65;;;8.68;;
39442;SDS011;25147;52.142;9.960;2023-05-07T06:48:03;9.65;;;8.65;;
39442;SDS011;25147;52.142;9.960;2023-05-07T06:50:31;8.80;;;7.93;;
39442;SDS011;25147;52.142;9.960;2023-05-07T06:52:58;8.23;;;7.43;;
39442;SDS011;25147;52.142;9.960;2023-05-07T06:55:24;8.88;;;8.07;;
39442;SDS011;25147;52.142;9.960;2023-05-07T06:57:51;9.02;;;8.13;;
39442;SDS011;25147;52.142;9.960;2023-05-07T07:00:18;9.02;;;8.13;;
39442;SDS011;25147;52.142;9.960;2023-05-07T07:02:46;9.32;;;8.43;;
39442;SDS011;25147;52.142;9.960;2023-05-07T07:05:14;9.52;;;8.52;;
39442;SDS011;25147;52.142;9.960;2023-05-07T07:07:41;9.20;;;8.30;;
39442;SDS011;25147;52.142;9.960;2023-05-07T07:10:08;10.75;;;8.52;;
39442;SDS011;25147;52.142;9.960;2023-05-07T07:12:35;9.13;;;8.23;;
39442;SDS011;25147;52.142;9.960;2023-05-07T07:15:02;9.95;;;8.85;;
39442;SDS011;25147;52.142;9.960;2023-05-07T07:17:29;9.40;;;8.45;;
39442;SDS011;25147;52.142;9.960;2023-05-07T07:19:56;8.90;;;8.20;;
39442;SDS011;25147;52.142;9.960;2023-05-07T07:22:24;9.77;;;8.85;;
39442;SDS011;25147;52.142;9.960;2023-05-07T07:24:51;9.27;;;8.40;;
39442;SDS011;25147;52.142;9.960;2023-05-07T07:27:18;8.05;;;7.25;;
39442;SDS011;25147;52.142;9.960;2023-05-07T07:29:45;7.90;;;7.18;;
39442;SDS011;25147;52.142;9.960;2023-05-07T07:32:11;8.57;;;7.78;;
39442;SDS011;25147;52.142;9.960;2023-05-07T07:34:38;8.50;;;7.80;;
39442;SDS011;25147;52.142;9.960;2023-05-07T07:37:05;8.77;;;7.88;;
39442;SDS011;25147;52.142;9.960;2023-05-07T07:39:33;9.30;;;8.45;;
39442;SDS011;25147;52.142;9.960;2023-05-07T07:42:03;10.02;;;9.13;;
39442;SDS011;25147;52.142;9.960;2023-05-07T07:44:37;9.15;;;7.80;;
39442;SDS011;25147;52.142;9.960;2023-05-07T07:47:05;10.02;;;9.13;;
39442;SDS011;25147;52.142;9.960;2023-05-07T07:49:32;10.02;;;9.13;;
39442;SDS011;25147;52.142;9.960;2023-05-07T07:51:58;10.10;;;9.18;;
39442;SDS011;25147;52.142;9.960;2023-05-07T07:54:25;10.63;;;9.70;;
39442;SDS011;25147;52.142;9.960;2023-05-07T07:56:54;10.35;;;9.45;;
39442;SDS011;25147;52.142;9.960;2023-05-07T07:59:21;10.77;;;9.75;;
39442;SDS011;25147;52.142;9.960;2023-05-07T08:01:48;11.60;;;10.50;;
39442;SDS011;25147;52.142;9.960;2023-05-07T08:04:15;12.75;;;11.48;;
39442;SDS011;25147;52.142;9.960;2023-05-07T08:06:45;12.85;;;11.35;;
39442;SDS011;25147;52.142;9.960;2023-05-07T08:09:13;11.55;;;10.45;;
39442;SDS011;25147;52.142;9.960;2023-05-07T08:11:40;13.60;;;12.30;;
39442;SDS011;25147;52.142;9.960;2023-05-07T08:14:08;13.88;;;12.50;;
39442;SDS011;25147;52.142;9.960;2023-05-07T08:16:35;12.38;;;11.18;;
39442;SDS011;25147;52.142;9.960;2023-05-07T08:19:02;13.07;;;11.88;;
39442;SDS011;25147;52.142;9.960;2023-05-07T08:21:32;12.48;;;11.45;;
39442;SDS011;25147;52.142;9.960;2023-05-07T08:23:59;12.75;;;11.55;;
39442;SDS011;25147;52.142;9.960;2023-05-07T08:26:26;12.50;;;11.40;;
39442;SDS011;25147;52.142;9.960;2023-05-07T08:28:53;11.82;;;10.73;;
39442;SDS011;25147;52.142;9.960;2023-05-07T08:31:21;11.20;;;10.15;;
39442;SDS011;25147;52.142;9.960;2023-05-07T08:33:48;10.95;;;9.95;;
39442;SDS011;25147;52.142;9.960;2023-05-07T08:36:14;10.95;;;9.88;;
39442;SDS011;25147;52.142;9.960;2023-05-07T08:38:41;11.98;;;10.77;;
39442;SDS011;25147;52.142;9.960;2023-05-07T08:41:10;10.70;;;9.75;;
39442;SDS011;25147;52.142;9.960;2023-05-07T08:43:37;10.93;;;9.93;;
39442;SDS011;25147;52.142;9.960;2023-05-07T08:46:08;10.70;;;9.77;;
39442;SDS011;25147;52.142;9.960;2023-05-07T08:48:38;11.25;;;10.25;;
39442;SDS011;25147;52.142;9.960;2023-05-07T08:51:05;11.32;;;9.25;;
39442;SDS011;25147;52.142;9.960;2023-05-07T08:53:32;11.05;;;9.93;;
39442;SDS011;25147;52.142;9.960;2023-05-07T08:56:00;12.20;;;9.80;;
39442;SDS011;25147;52.142;9.960;2023-05-07T08:58:29;10.57;;;9.60;;
39442;SDS011;25147;52.142;9.960;2023-05-07T09:00:56;9.88;;;8.98;;
39442;SDS011;25147;52.142;9.960;2023-05-07T09:03:23;9.73;;;8.82;;
39442;SDS011;25147;52.142;9.960;2023-05-07T09:05:53;10.50;;;9.50;;
39442;SDS011;25147;52.142;9.960;2023-05-07T09:08:23;10.20;;;9.20;;
39442;SDS011;25147;52.142;9.960;2023-05-07T09:10:53;9.68;;;8.77;;
39442;SDS011;25147;52.142;9.960;2023-05-07T09:13:20;10.77;;;9.80;;
39442;SDS011;25147;52.142;9.960;2023-05-07T09:15:47;10.55;;;9.55;;
39442;SDS011;25147;52.142;9.960;2023-05-07T09:18:14;10.18;;;9.10;;
39442;SDS011;25147;52.142;9.960;2023-05-07T09:20:41;10.07;;;9.10;;
39442;SDS011;25147;52.142;9.960;2023-05-07T09:23:12;10.48;;;9.48;;
39442;SDS011;25147;52.142;9.960;2023-05-07T09:25:38;10.52;;;9.52;;
39442;SDS011;25147;52.142;9.960;2023-05-07T09:28:05;10.75;;;9.60;;
39442;SDS011;25147;52.142;9.960;2023-05-07T09:30:32;10.38;;;9.48;;
39442;SDS011;25147;52.142;9.960;2023-05-07T09:33:00;12.23;;;11.02;;
39442;SDS011;25147;52.142;9.960;2023-05-07T09:35:29;11.32;;;10.30;;
39442;SDS011;25147;52.142;9.960;2023-05-07T09:37:56;12.30;;;11.20;;
39442;SDS011;25147;52.142;9.960;2023-05-07T09:40:26;11.02;;;10.02;;
39442;SDS011;25147;52.142;9.960;2023-05-07T09:42:54;11.85;;;10.85;;
39442;SDS011;25147;52.142;9.960;2023-05-07T09:45:21;11.40;;;10.40;;
39442;SDS011;25147;52.142;9.960;2023-05-07T09:47:49;12.25;;;11.15;;
39442;SDS011;25147;52.142;9.960;2023-05-07T09:50:22;12.40;;;11.30;;
39442;SDS011;25147;52.142;9.960;2023-05-07T09:52:54;13.13;;;11.93;;
39442;SDS011;25147;52.142;9.960;2023-05-07T09:55:21;13.02;;;11.88;;
39442;SDS011;25147;52.142;9.960;2023-05-07T09:57:51;13.98;;;12.70;;
39442;SDS011;25147;52.142;9.960;2023-05-07T10:00:19;13.63;;;12.30;;
39442;SDS011;25147;52.142;9.960;2023-05-07T10:02:47;13.63;;;12.23;;
39442;SDS011;25147;52.142;9.960;2023-05-07T10:05:17;13.07;;;11.77;;
39442;SDS011;25147;52.142;9.960;2023-05-07T10:07:45;13.80;;;12.45;;
39442;SDS011;25147;52.142;9.960;2023-05-07T10:10:16;14.40;;;12.90;;
39442;SDS011;25147;52.142;9.960;2023-05-07T10:12:44;14.50;;;13.20;;
39442;SDS011;25147;52.142;9.960;2023-05-07T10:15:12;12.85;;;11.65;;
39442;SDS011;25147;52.142;9.960;2023-05-07T10:17:40;12.63;;;11.52;;
39442;SDS011;25147;52.142;9.960;2023-05-07T10:20:08;12.55;;;11.38;;
39442;SDS011;25147;52.142;9.960;2023-05-07T10:22:37;13.88;;;12.65;;
39442;SDS011;25147;52.142;9.960;2023-05-07T10:25:09;12.35;;;11.25;;
39442;SDS011;25147;52.142;9.960;2023-05-07T10:27:42;12.88;;;11.77;;
39442;SDS011;25147;52.142;9.960;2023-05-07T10:30:14;12.23;;;11.13;;
39442;SDS011;25147;52.142;9.960;2023-05-07T10:32:48;11.18;;;10.18;;
39442;SDS011;25147;52.142;9.960;2023-05-07T10:35:17;11.93;;;10.88;;
39442;SDS011;25147;52.142;9.960;2023-05-07T10:37:46;12.18;;;10.95;;
39442;SDS011;25147;52.142;9.960;2023-05-07T10:40:14;11.52;;;10.43;;
39442;SDS011;25147;52.142;9.960;2023-05-07T10:42:55;11.45;;;10.43;;
39442;SDS011;25147;52.142;9.960;2023-05-07T10:45:25;12.02;;;10.90;;
39442;SDS011;25147;52.142;9.960;2023-05-07T10:48:11;11.88;;;10.73;;
39442;SDS011;25147;52.142;9.960;2023-05-07T10:50:39;11.93;;;10.82;;
39442;SDS011;25147;52.142;9.960;2023-05-07T10:53:25;10.88;;;9.98;;
39442;SDS011;25147;52.142;9.960;2023-05-07T10:58:54;11.65;;;10.50;;
39442;SDS011;25147;52.142;9.960;2023-05-07T11:04:22;11.05;;;10.07;;
39442;SDS011;25147;52.142;9.960;2023-05-07T11:07:10;12.68;;;10.55;;
39442;SDS011;25147;52.142;9.960;2023-05-07T11:09:54;10.02;;;9.23;;
39442;SDS011;25147;52.142;9.960;2023-05-07T11:18:11;10.10;;;9.18;;
39442;SDS011;25147;52.142;9.960;2023-05-07T11:20:44;10.07;;;9.15;;
39442;SDS011;25147;52.142;9.960;2023-05-07T11:26:22;9.73;;;8.93;;
39442;SDS011;25147;52.142;9.960;2023-05-07T11:28:49;9.27;;;8.57;;
39442;SDS011;25147;52.142;9.960;2023-05-07T11:31:20;9.75;;;8.85;;
39442;SDS011;25147;52.142;9.960;2023-05-07T11:33:49;11.02;;;10.02;;
39442;SDS011;25147;52.142;9.960;2023-05-07T11:36:16;10.30;;;9.30;;
39442;SDS011;25147;52.142;9.960;2023-05-07T11:38:44;9.95;;;9.05;;
39442;SDS011;25147;52.142;9.960;2023-05-07T11:41:11;9.60;;;8.80;;
39442;SDS011;25147;52.142;9.960;2023-05-07T11:43:39;10.77;;;8.85;;
39442;SDS011;25147;52.142;9.960;2023-05-07T11:46:20;8.73;;;7.93;;
39442;SDS011;25147;52.142;9.960;2023-05-07T11:48:47;7.93;;;7.32;;
39442;SDS011;25147;52.142;9.960;2023-05-07T11:51:15;8.35;;;7.55;;
39442;SDS011;25147;52.142;9.960;2023-05-07T11:53:45;8.38;;;7.57;;
39442;SDS011;25147;52.142;9.960;2023-05-07T11:56:12;8.27;;;7.57;;
39442;SDS011;25147;52.142;9.960;2023-05-07T11:58:40;7.53;;;6.82;;
39442;SDS011;25147;52.142;9.960;2023-05-07T12:01:08;7.55;;;6.85;;
39442;SDS011;25147;52.142;9.960;2023-05-07T12:03:36;6.35;;;5.85;;
39442;SDS011;25147;52.142;9.960;2023-05-07T12:06:05;6.13;;;5.63;;
39442;SDS011;25147;52.142;9.960;2023-05-07T12:08:35;6.80;;;6.18;;
39442;SDS011;25147;52.142;9.960;2023-05-07T12:11:03;8.27;;;6.28;;
39442;SDS011;25147;52.142;9.960;2023-05-07T12:13:34;7.10;;;6.40;;
39442;SDS011;25147;52.142;9.960;2023-05-07T12:16:01;6.25;;;5.45;;
39442;SDS011;25147;52.142;9.960;2023-05-07T12:18:32;6.50;;;6.00;;
39442;SDS011;25147;52.142;9.960;2023-05-07T12:21:01;6.80;;;6.20;;
39442;SDS011;25147;52.142;9.960;2023-05-07T12:23:28;6.90;;;6.30;;
39442;SDS011;25147;52.142;9.960;2023-05-07T12:25:56;6.07;;;5.60;;
39442;SDS011;25147;52.142;9.960;2023-05-07T12:28:23;6.78;;;6.28;;
39442;SDS011;25147;52.142;9.960;2023-05-07T12:30:50;6.40;;;5.82;;
39442;SDS011;25147;52.142;9.960;2023-05-07T12:33:18;6.55;;;5.95;;
39442;SDS011;25147;52.142;9.960;2023-05-07T12:35:49;7.03;;;6.43;;
39442;SDS011;25147;52.142;9.960;2023-05-07T12:38:17;7.00;;;6.50;;
39442;SDS011;25147;52.142;9.960;2023-05-07T12:40:45;6.95;;;6.35;;
39442;SDS011;25147;52.142;9.960;2023-05-07T12:43:18;7.25;;;6.65;;
39442;SDS011;25147;52.142;9.960;2023-05-07T12:45:46;7.03;;;6.43;;
39442;SDS011;25147;52.142;9.960;2023-05-07T12:48:14;7.72;;;7.03;;
39442;SDS011;25147;52.142;9.960;2023-05-07T12:50:41;7.22;;;6.72;;
39442;SDS011;25147;52.142;9.960;2023-05-07T12:53:09;7.15;;;6.60;;
39442;SDS011;25147;52.142;9.960;2023-05-07T12:55:41;8.70;;;8.00;;
39442;SDS011;25147;52.142;9.960;2023-05-07T12:58:14;8.10;;;7.32;;
39442;SDS011;25147;52.142;9.960;2023-05-07T13:00:43;8.00;;;7.35;;
39442;SDS011;25147;52.142;9.960;2023-05-07T13:03:11;8.57;;;7.85;;
39442;SDS011;25147;52.142;9.960;2023-05-07T13:05:38;8.93;;;8.13;;
39442;SDS011;25147;52.142;9.960;2023-05-07T13:08:05;8.48;;;7.78;;
39442;SDS011;25147;52.142;9.960;2023-05-07T13:10:34;8.10;;;7.45;;
39442;SDS011;25147;52.142;9.960;2023-05-07T13:13:01;9.32;;;8.63;;
39442;SDS011;25147;52.142;9.960;2023-05-07T13:15:28;9.25;;;8.32;;
39442;SDS011;25147;52.142;9.960;2023-05-07T13:17:56;8.80;;;8.10;;
39442;SDS011;25147;52.142;9.960;2023-05-07T13:20:23;8.75;;;8.05;;
39442;SDS011;25147;52.142;9.960;2023-05-07T13:22:50;8.02;;;7.43;;
39442;SDS011;25147;52.142;9.960;2023-05-07T13:25:16;8.55;;;7.72;;
39442;SDS011;25147;52.142;9.960;2023-05-07T13:27:43;8.05;;;7.32;;
39442;SDS011;25147;52.142;9.960;2023-05-07T13:30:10;8.90;;;8.10;;
39442;SDS011;25147;52.142;9.960;2023-05-07T13:32:37;8.18;;;7.57;;
39442;SDS011;25147;52.142;9.960;2023-05-07T13:35:05;8.32;;;7.72;;
39442;SDS011;25147;52.142;9.960;2023-05-07T13:37:33;8.70;;;8.00;;
39442;SDS011;25147;52.142;9.960;2023-05-07T13:40:00;8.80;;;8.00;;
39442;SDS011;25147;52.142;9.960;2023-05-07T13:42:26;7.70;;;7.10;;
39442;SDS011;25147;52.142;9.960;2023-05-07T13:44:53;8.65;;;7.88;;
39442;SDS011;25147;52.142;9.960;2023-05-07T13:47:20;9.05;;;8.30;;
39442;SDS011;25147;52.142;9.960;2023-05-07T13:49:46;7.95;;;7.35;;
39442;SDS011;25147;52.142;9.960;2023-05-07T13:52:16;8.75;;;7.95;;
39442;SDS011;25147;52.142;9.960;2023-05-07T13:54:44;8.57;;;7.97;;
39442;SDS011;25147;52.142;9.960;2023-05-07T13:57:11;9.02;;;8.43;;
39442;SDS011;25147;52.142;9.960;2023-05-07T13:59:37;8.82;;;8.18;;
39442;SDS011;25147;52.142;9.960;2023-05-07T14:02:04;8.77;;;8.07;;
39442;SDS011;25147;52.142;9.960;2023-05-07T14:04:32;10.50;;;9.40;;
39442;SDS011;25147;52.142;9.960;2023-05-07T14:06:58;9.45;;;8.65;;
39442;SDS011;25147;52.142;9.960;2023-05-07T14:09:27;9.40;;;8.60;;
39442;SDS011;25147;52.142;9.960;2023-05-07T14:11:54;9.60;;;8.90;;
39442;SDS011;25147;52.142;9.960;2023-05-07T14:14:21;9.35;;;8.57;;
39442;SDS011;25147;52.142;9.960;2023-05-07T14:16:48;9.52;;;8.80;;
39442;SDS011;25147;52.142;9.960;2023-05-07T14:19:15;9.45;;;8.65;;
39442;SDS011;25147;52.142;9.960;2023-05-07T14:21:42;10.35;;;9.55;;
39442;SDS011;25147;52.142;9.960;2023-05-07T14:24:09;10.43;;;9.63;;
39442;SDS011;25147;52.142;9.960;2023-05-07T14:26:37;11.07;;;10.07;;
39442;SDS011;25147;52.142;9.960;2023-05-07T14:29:03;10.73;;;9.77;;
39442;SDS011;25147;52.142;9.960;2023-05-07T14:31:30;9.63;;;8.82;;
39442;SDS011;25147;52.142;9.960;2023-05-07T14:33:58;11.18;;;10.07;;
39442;SDS011;25147;52.142;9.960;2023-05-07T14:36:24;11.30;;;10.32;;
39442;SDS011;25147;52.142;9.960;2023-05-07T14:38:52;11.75;;;10.63;;
39442;SDS011;25147;52.142;9.960;2023-05-07T14:41:20;11.10;;;10.10;;
39442;SDS011;25147;52.142;9.960;2023-05-07T14:43:49;11.45;;;10.35;;
39442;SDS011;25147;52.142;9.960;2023-05-07T14:46:16;11.45;;;10.45;;
39442;SDS011;25147;52.142;9.960;2023-05-07T14:48:43;10.88;;;9.88;;
39442;SDS011;25147;52.142;9.960;2023-05-07T14:51:11;11.88;;;10.88;;